Time;durP1;ratioP1;P1;durP2;ratioP2;P2;SDS_P1;SDS_P2;PMS_P1;PMS_P2;Temp;Humidity;BMP_temperature;BMP_pressure;BME280_temperature;BME280_humidity;BME280_pressure;Samples;Min_cycle;Max_cycle;Signal;HPM_P1;HPM_P2
2023/06/09 04:47:20;;;;;;;12.37;11.10;;;12.60;99.90;;;;;;5120441;27;20339;-87
2023/06/09 04:55:40;;;;;;;19.23;15.43;;;;;;;;;;5139528;27;20275;-88
2023/06/09 05:04:22;;;;;;;16.67;14.93;;;13.00;99.90;;;;;;5134806;27;20263;-81
2023/06/09 05:11:01;;;;;;;13.70;12.03;;;;;;;;;;5134775;27;20278;-81
2023/06/09 05:17:50;;;;;;;12.00;10.70;;;13.00;99.90;;;;;;5134332;27;20672;-81
2023/06/09 05:24:35;;;;;;;9.37;8.40;;;13.20;99.90;;;;;;5133815;27;20267;-80
2023/06/09 05:31:23;;;;;;;10.00;9.00;;;;;;;;;;5133010;27;20654;-80
2023/06/09 05:36:45;;;;;;;9.87;7.47;;;13.70;99.90;;;;;;5132667;27;20630;-80
2023/06/09 05:42:43;;;;;;;9.10;8.20;;;13.90;99.90;;;;;;5134862;27;20275;-80
2023/06/09 05:48:32;;;;;;;9.87;8.10;;;14.00;99.90;;;;;;5134264;27;20284;-81
2023/06/09 05:54:24;;;;;;;8.93;7.93;;;14.00;99.90;;;;;;5134758;27;20271;-81
2023/06/09 05:59:03;;;;;;;9.80;8.20;;;14.30;99.90;;;;;;5134853;27;20288;-81
2023/06/09 06:03:54;;;;;;;10.53;8.63;;;14.60;99.90;;;;;;5135116;27;20283;-81
2023/06/09 06:08:45;;;;;;;8.23;7.03;;;14.80;99.90;;;;;;5135303;27;20310;-81
2023/06/09 06:13:40;;;;;;;8.57;6.33;;;15.00;99.90;;;;;;5148840;27;20283;-81
2023/06/09 06:18:33;;;;;;;7.13;6.43;;;15.30;99.90;;;;;;5135813;27;20783;-81
2023/06/09 06:23:25;;;;;;;6.47;5.80;;;15.40;99.90;;;;;;5136442;27;20272;-81
2023/06/09 06:27:15;;;;;;;12.50;6.43;;;15.70;99.90;;;;;;5149019;27;20271;-82
2023/06/09 06:31:11;;;;;;;6.27;5.37;;;15.80;99.90;;;;;;5117809;27;20773;-82
2023/06/09 06:35:07;;;;;;;6.87;5.80;;;15.80;99.90;;;;;;5117158;27;20283;-81
2023/06/09 06:39:04;;;;;;;5.87;5.10;;;16.00;99.90;;;;;;5114857;27;20286;-81
2023/06/09 06:43:01;;;;;;;7.40;5.00;;;16.30;99.90;;;;;;5115257;27;20271;-82
2023/06/09 06:46:58;;;;;;;5.67;5.07;;;16.40;99.90;;;;;;5136594;27;20750;-81
2023/06/09 06:50:56;;;;;;;6.23;5.50;;;16.50;99.90;;;;;;5140469;27;20269;-81
2023/06/09 06:54:56;;;;;;;7.27;5.87;;;16.70;99.90;;;;;;5134873;27;20278;-81
2023/06/09 06:58:54;;;;;;;6.53;5.83;;;16.80;99.90;;;;;;5134756;27;20295;-82
2023/06/09 07:02:53;;;;;;;10.37;4.77;;;16.90;99.90;;;;;;5134994;27;20297;-80
2023/06/09 07:06:51;;;;;;;6.50;5.80;;;16.90;99.90;;;;;;5135390;27;20270;-81
2023/06/09 07:10:51;;;;;;;8.10;5.23;;;17.00;99.90;;;;;;5135560;27;20270;-80
2023/06/09 07:14:50;;;;;;;6.57;5.00;;;17.20;99.90;;;;;;5135682;27;20269;-80
2023/06/09 07:18:49;;;;;;;5.77;5.17;;;17.30;99.90;;;;;;5134887;27;20288;-81
2023/06/09 07:22:52;;;;;;;6.03;5.40;;;17.40;99.90;;;;;;5133682;27;20300;-80
2023/06/09 07:26:48;;;;;;;6.87;6.07;;;17.60;99.90;;;;;;5133883;27;20271;-81
2023/06/09 07:30:49;;;;;;;5.97;5.37;;;17.80;99.90;;;;;;5135411;27;20284;-81
2023/06/09 07:34:49;;;;;;;5.50;4.97;;;18.00;99.90;;;;;;5135550;27;20651;-81
2023/06/09 07:37:15;;;;;;;6.33;4.83;;;;;;;;;;5135200;28;20255;-81
2023/06/09 07:41:44;;;;;;;6.37;4.73;;;18.20;99.90;;;;;;5135320;27;20271;-81
2023/06/09 07:44:10;;;;;;;4.97;4.47;;;18.30;99.90;;;;;;5135074;28;20256;-81
2023/06/09 07:46:36;;;;;;;7.50;4.87;;;18.50;99.90;;;;;;5116496;28;20178;-81
2023/06/09 07:49:02;;;;;;;4.63;4.10;;;18.70;99.90;;;;;;5129328;28;20221;-81
2023/06/09 07:51:29;;;;;;;7.77;4.00;;;18.80;99.90;;;;;;5134348;28;20191;-81
2023/06/09 07:53:55;;;;;;;5.40;4.33;;;18.90;99.90;;;;;;5136282;27;20186;-81
2023/06/09 07:56:21;;;;;;;4.10;3.70;;;19.00;99.90;;;;;;5133721;28;20640;-81
2023/06/09 07:58:49;;;;;;;6.67;4.03;;;19.10;99.90;;;;;;5133837;28;20294;-81
2023/06/09 08:01:15;;;;;;;4.07;3.70;;;19.20;99.90;;;;;;5134091;28;20222;-82
2023/06/09 08:03:41;;;;;;;6.33;4.43;;;19.40;99.90;;;;;;5135469;27;20175;-82
2023/06/09 08:06:08;;;;;;;6.43;4.00;;;19.50;99.90;;;;;;5134674;27;20185;-81
2023/06/09 08:08:34;;;;;;;5.30;4.80;;;19.60;99.90;;;;;;5133794;28;20706;-81
2023/06/09 08:11:00;;;;;;;6.63;4.60;;;19.80;99.90;;;;;;5133599;28;20183;-81
2023/06/09 08:13:27;;;;;;;5.70;4.37;;;20.00;99.90;;;;;;5134516;28;20187;-81
2023/06/09 08:15:53;;;;;;;7.03;4.67;;;20.10;99.90;;;;;;5135307;28;20667;-81
2023/06/09 08:18:19;;;;;;;5.77;5.10;;;20.20;99.90;;;;;;5136148;28;20203;-81
2023/06/09 08:20:45;;;;;;;5.93;5.33;;;20.40;99.90;;;;;;5137563;27;20200;-81
2023/06/09 08:23:10;;;;;;;5.50;5.00;;;20.60;99.90;;;;;;5135594;27;20167;-82
2023/06/09 08:25:37;;;;;;;6.13;5.23;;;20.60;99.90;;;;;;5132923;28;20667;-82
2023/06/09 08:28:02;;;;;;;7.77;5.07;;;20.80;99.90;;;;;;5133067;28;20205;-81
2023/06/09 08:30:28;;;;;;;5.93;5.07;;;20.90;99.90;;;;;;5135317;27;20595;-81
2023/06/09 08:32:54;;;;;;;5.70;5.20;;;21.10;99.90;;;;;;5134429;27;20234;-81
2023/06/09 08:35:21;;;;;;;11.30;5.17;;;21.30;99.90;;;;;;5134278;27;20258;-81
2023/06/09 08:37:47;;;;;;;5.43;4.93;;;21.30;99.90;;;;;;5132735;28;20541;-81
2023/06/09 08:40:13;;;;;;;6.13;5.47;;;21.30;99.90;;;;;;5132853;28;20213;-81
2023/06/09 08:42:39;;;;;;;7.23;5.20;;;21.50;99.90;;;;;;5134280;28;20178;-81
2023/06/09 08:45:06;;;;;;;5.70;5.20;;;21.60;99.90;;;;;;5133899;28;20205;-81
2023/06/09 08:47:33;;;;;;;5.27;4.70;;;21.70;99.90;;;;;;5133308;28;20345;-81
2023/06/09 08:50:02;;;;;;;6.50;5.27;;;21.80;99.90;;;;;;5133874;28;20282;-81
2023/06/09 08:52:29;;;;;;;7.27;5.03;;;21.90;99.90;;;;;;5123966;27;20656;-81
2023/06/09 08:54:58;;;;;;;7.17;5.40;;;22.10;99.90;;;;;;5120481;28;20583;-82
2023/06/09 08:57:24;;;;;;;5.67;5.17;;;22.20;99.90;;;;;;5119089;28;20184;-81
2023/06/09 08:59:50;;;;;;;5.73;4.87;;;22.30;99.90;;;;;;5119499;28;20203;-81
2023/06/09 09:02:17;;;;;;;5.63;4.40;;;22.40;99.90;;;;;;5121064;28;20168;-81
2023/06/09 09:04:43;;;;;;;5.20;4.70;;;22.40;99.90;;;;;;5119049;28;20171;-82
2023/06/09 09:07:11;;;;;;;5.43;4.93;;;22.60;99.90;;;;;;5122660;28;20184;-80
2023/06/09 09:09:37;;;;;;;5.63;5.13;;;22.80;99.90;;;;;;5118262;27;20533;-81
2023/06/09 09:12:03;;;;;;;5.50;5.00;;;22.90;99.90;;;;;;5117514;28;20181;-81
2023/06/09 09:14:29;;;;;;;5.20;4.80;;;23.10;99.90;;;;;;5116859;28;20187;-82
2023/06/09 09:16:55;;;;;;;5.30;4.83;;;23.20;99.90;;;;;;5120038;28;20251;-82
2023/06/09 09:19:27;;;;;;;4.67;4.27;;;23.40;99.90;;;;;;5119888;28;20222;-82
2023/06/09 09:21:56;;;;;;;5.97;4.67;;;23.40;99.90;;;;;;5120292;27;20178;-81
2023/06/09 09:24:29;;;;;;;4.93;4.50;;;23.60;99.90;;;;;;5119932;28;20184;-81
2023/06/09 09:26:58;;;;;;;4.60;4.20;;;23.70;99.90;;;;;;5118196;28;20229;-81
2023/06/09 09:29:28;;;;;;;5.10;4.50;;;23.80;99.90;;;;;;5118228;28;20196;-81
2023/06/09 09:31:58;;;;;;;4.73;4.33;;;24.00;99.90;;;;;;5118609;28;20222;-81
2023/06/09 09:34:31;;;;;;;4.20;3.80;;;24.20;99.90;;;;;;5118257;28;20180;-82
2023/06/09 09:36:58;;;;;;;6.47;4.63;;;24.40;99.90;;;;;;5118119;28;20209;-81
2023/06/09 09:39:24;;;;;;;4.37;3.97;;;24.40;99.90;;;;;;5118608;28;20195;-81
2023/06/09 09:42:07;;;;;;;4.47;4.10;;;24.60;99.90;;;;;;5119705;28;20632;-82
2023/06/09 09:44:43;;;;;;;4.10;3.60;;;24.80;99.90;;;;;;5119703;28;20178;-82
2023/06/09 09:47:14;;;;;;;4.43;4.03;;;25.10;99.90;;;;;;5119196;28;20627;-82
2023/06/09 09:49:55;;;;;;;3.80;3.50;;;25.20;99.90;;;;;;5119572;28;20182;-82
2023/06/09 09:52:25;;;;;;;5.03;3.97;;;25.50;99.90;;;;;;5118016;28;20185;-81
2023/06/09 09:54:55;;;;;;;5.37;4.37;;;25.70;99.90;;;;;;5118068;28;20181;-81
2023/06/09 09:57:24;;;;;;;5.40;3.67;;;25.80;99.90;;;;;;5117567;28;20175;-82
2023/06/09 09:59:51;;;;;;;4.20;3.80;;;25.90;99.90;;;;;;5119699;28;20282;-81
2023/06/09 10:02:22;;;;;;;6.93;3.87;;;26.00;99.90;;;;;;5120247;28;20178;-81
2023/06/09 10:04:49;;;;;;;5.03;3.93;;;25.70;99.90;;;;;;5118381;28;20189;-82
2023/06/09 10:07:21;;;;;;;4.20;3.57;;;25.70;99.90;;;;;;5120785;28;20242;-82
2023/06/09 10:09:49;;;;;;;4.33;3.40;;;25.70;99.90;;;;;;5126942;28;20183;-79
2023/06/09 10:12:16;;;;;;;4.20;3.80;;;25.80;99.90;;;;;;5126751;28;20175;-79
2023/06/09 10:14:42;;;;;;;5.43;3.80;;;26.10;99.90;;;;;;5131006;28;20179;-81
2023/06/09 10:17:08;;;;;;;3.63;3.33;;;26.30;99.90;;;;;;5133233;28;20169;-80
2023/06/09 10:19:35;;;;;;;4.63;3.80;;;26.40;99.90;;;;;;5129967;27;20190;-81
2023/06/09 10:22:02;;;;;;;3.20;2.90;;;26.60;99.90;;;;;;5119336;27;20230;-81
2023/06/09 10:24:28;;;;;;;3.87;3.20;;;26.60;99.90;;;;;;5119095;28;20173;-81
2023/06/09 10:26:55;;;;;;;3.77;2.80;;;27.00;99.90;;;;;;5118614;28;20533;-80
2023/06/09 10:29:21;;;;;;;4.17;3.13;;;27.20;99.90;;;;;;5116771;28;20213;-80
2023/06/09 10:31:48;;;;;;;3.30;3.00;;;27.50;99.90;;;;;;5117563;28;20182;-81
2023/06/09 10:34:15;;;;;;;3.10;2.80;;;27.80;99.90;;;;;;5120621;28;20236;-81
2023/06/09 10:36:41;;;;;;;3.27;2.97;;;27.90;99.40;;;;;;5117312;28;20183;-81
2023/06/09 10:39:55;;;;;;;3.73;3.30;;;28.00;99.90;;;;;;5117198;28;20268;-81
2023/06/09 10:43:14;;;;;;;3.23;2.93;;;28.10;99.90;;;;;;5115240;28;20188;-81
2023/06/09 10:45:53;;;;;;;3.30;3.00;;;28.30;99.90;;;;;;5058498;28;20585;-81
2023/06/09 10:48:41;;;;;;;4.63;3.20;;;28.50;98.70;;;;;;5115959;28;20282;-80
2023/06/09 10:51:31;;;;;;;3.80;3.10;;;28.70;98.90;;;;;;5116881;28;20172;-81
2023/06/09 10:54:12;;;;;;;3.30;3.00;;;28.80;99.80;;;;;;5115453;28;20183;-80
2023/06/09 10:56:40;;;;;;;3.53;3.23;;;28.30;98.60;;;;;;5114776;28;20179;-80
2023/06/09 10:59:31;;;;;;;3.20;3.00;;;28.20;96.80;;;;;;5114582;28;20211;-81
2023/06/09 11:02:02;;;;;;;3.40;3.10;;;27.40;96.20;;;;;;5114317;28;20180;-80
2023/06/09 11:04:46;;;;;;;5.10;3.30;;;26.50;99.10;;;;;;5116198;28;20200;-81
2023/06/09 11:07:16;;;;;;;5.43;3.20;;;26.20;97.60;;;;;;5119176;28;20175;-81
2023/06/09 11:09:50;;;;;;;3.40;3.10;;;26.60;99.90;;;;;;5119329;28;20168;-80
2023/06/09 11:12:25;;;;;;;3.43;3.13;;;27.20;96.60;;;;;;5118024;28;20178;-80
2023/06/09 11:14:58;;;;;;;4.20;2.90;;;27.60;96.40;;;;;;5116407;28;20180;-81
2023/06/09 11:17:30;;;;;;;3.57;3.17;;;28.20;95.70;;;;;;5117120;28;20224;-80
2023/06/09 11:20:11;;;;;;;3.67;2.90;;;28.60;98.30;;;;;;5116413;28;20389;-83
2023/06/09 11:22:49;;;;;;;3.77;3.10;;;28.90;91.60;;;;;;5117860;28;20168;-82
2023/06/09 11:25:15;;;;;;;3.07;2.77;;;29.00;93.50;;;;;;5117073;28;20649;-81
2023/06/09 11:27:42;;;;;;;2.97;2.73;;;29.40;92.80;;;;;;5120128;28;20202;-80
2023/06/09 11:30:11;;;;;;;3.63;3.00;;;29.70;94.00;;;;;;5121590;28;20176;-80
2023/06/09 11:32:59;;;;;;;2.90;2.70;;;29.90;90.30;;;;;;5119043;28;20203;-81
2023/06/09 11:35:31;;;;;;;4.53;2.70;;;30.00;92.70;;;;;;5116206;28;20221;-80
2023/06/09 11:38:07;;;;;;;4.33;3.23;;;30.20;92.10;;;;;;5116204;28;20680;-81
2023/06/09 11:40:35;;;;;;;3.00;2.80;;;30.40;90.30;;;;;;5117337;28;20207;-81
2023/06/09 11:43:02;;;;;;;4.43;2.90;;;30.80;87.90;;;;;;5117405;28;20242;-81
2023/06/09 11:45:32;;;;;;;4.60;2.80;;;31.10;83.50;;;;;;5116472;28;20172;-80
2023/06/09 11:47:59;;;;;;;3.20;2.87;;;31.40;91.20;;;;;;5117555;28;20191;-81
2023/06/09 11:50:35;;;;;;;3.33;2.87;;;31.70;86.30;;;;;;5116147;28;20205;-81
2023/06/09 11:53:08;;;;;;;4.93;2.77;;;31.80;78.80;;;;;;5117556;28;20179;-81
2023/06/09 11:55:34;;;;;;;3.13;2.80;;;31.90;76.90;;;;;;5118481;28;20234;-81
2023/06/09 11:58:01;;;;;;;2.93;2.70;;;32.00;81.70;;;;;;5118419;28;20583;-81
2023/06/09 12:00:29;;;;;;;3.17;2.87;;;32.30;80.80;;;;;;5117525;28;20204;-83
2023/06/09 12:02:56;;;;;;;3.97;2.53;;;32.50;71.40;;;;;;5119268;28;20173;-81
2023/06/09 12:05:23;;;;;;;3.03;2.70;;;32.50;73.00;;;;;;5116299;28;20229;-81
2023/06/09 12:07:50;;;;;;;3.20;2.90;;;32.40;71.70;;;;;;5115376;28;20191;-81
2023/06/09 12:10:19;;;;;;;2.80;2.60;;;32.60;73.60;;;;;;5117286;28;20697;-81
2023/06/09 12:13:06;;;;;;;4.10;2.90;;;32.60;79.90;;;;;;5117088;28;20640;-81
2023/06/09 12:15:31;;;;;;;3.33;3.03;;;32.60;74.30;;;;;;5118113;28;20179;-81
2023/06/09 12:17:58;;;;;;;3.73;2.67;;;32.30;70.50;;;;;;5117597;28;20199;-81
2023/06/09 12:20:37;;;;;;;5.17;2.80;;;32.40;71.70;;;;;;5117759;28;20538;-81
2023/06/09 12:23:02;;;;;;;9.03;2.90;;;32.60;67.50;;;;;;5115745;28;20177;-81
2023/06/09 12:25:31;;;;;;;3.00;2.80;;;32.70;72.00;;;;;;5114145;28;20187;-81
2023/06/09 12:28:31;;;;;;;7.83;3.10;;;32.40;75.10;;;;;;5118938;28;20213;-81
2023/06/09 12:31:06;;;;;;;4.17;2.90;;;31.00;76.20;;;;;;5120355;28;20198;-80
2023/06/09 12:33:32;;;;;;;3.10;2.90;;;29.50;77.60;;;;;;5119611;28;20183;-80
2023/06/09 12:36:05;;;;;;;2.80;2.60;;;29.10;72.80;;;;;;5119891;28;20178;-80
2023/06/09 12:38:36;;;;;;;3.00;2.80;;;29.90;75.50;;;;;;5118969;28;20202;-80
2023/06/09 12:41:16;;;;;;;4.73;3.07;;;30.80;81.20;;;;;;5120494;28;20283;-82
2023/06/09 12:43:44;;;;;;;3.87;3.47;;;31.60;74.40;;;;;;5118597;28;20179;-80
2023/06/09 12:46:10;;;;;;;4.47;2.43;;;31.10;66.60;;;;;;5117983;28;20170;-80
2023/06/09 12:49:05;;;;;;;6.83;2.83;;;31.20;70.10;;;;;;5117510;28;20197;-80
2023/06/09 12:51:43;;;;;;;3.23;2.70;;;31.30;72.00;;;;;;5120722;28;20212;-81
2023/06/09 12:54:11;;;;;;;3.03;2.73;;;31.80;74.90;;;;;;5121623;28;20173;-81
2023/06/09 12:56:37;;;;;;;4.03;2.73;;;32.00;68.70;;;;;;5119379;28;20168;-81
2023/06/09 12:59:03;;;;;;;3.67;3.10;;;32.20;69.50;;;;;;5121189;28;20667;-80
2023/06/09 13:01:32;;;;;;;3.17;2.87;;;32.10;70.60;;;;;;5120718;28;20665;-80
2023/06/09 13:03:58;;;;;;;3.80;2.53;;;32.00;64.20;;;;;;5118670;28;20207;-81
2023/06/09 13:06:25;;;;;;;3.00;2.60;;;30.70;64.90;;;;;;5119781;28;20195;-81
2023/06/09 13:08:51;;;;;;;4.47;2.97;;;29.20;69.60;;;;;;5118625;28;20237;-80
2023/06/09 13:11:17;;;;;;;3.37;2.80;;;28.90;77.60;;;;;;5119230;28;20180;-80
2023/06/09 13:13:43;;;;;;;3.97;2.80;;;29.60;76.40;;;;;;5119114;28;20182;-80
2023/06/09 13:16:09;;;;;;;3.13;2.80;;;30.60;81.70;;;;;;5120424;28;20175;-80
2023/06/09 13:18:35;;;;;;;4.27;3.17;;;31.00;75.90;;;;;;5119048;28;20647;-81
2023/06/09 13:21:01;;;;;;;4.10;2.83;;;31.10;72.90;;;;;;5119547;28;20236;-81
2023/06/09 13:23:27;;;;;;;2.87;2.67;;;31.40;76.80;;;;;;5121236;28;20204;-80
2023/06/09 13:25:53;;;;;;;3.53;2.53;;;31.40;67.30;;;;;;5120653;28;20174;-81
2023/06/09 13:28:19;;;;;;;2.63;2.43;;;31.30;71.90;;;;;;5119773;28;20187;-81
2023/06/09 13:30:45;;;;;;;3.27;2.97;;;31.40;70.00;;;;;;5120982;28;20252;-80
2023/06/09 13:33:12;;;;;;;3.13;2.60;;;31.60;68.90;;;;;;5122911;28;20534;-79
2023/06/09 13:35:41;;;;;;;3.10;2.70;;;31.80;66.60;;;;;;5121893;28;20572;-81
2023/06/09 13:38:07;;;;;;;4.30;2.87;;;31.80;68.40;;;;;;5120583;28;20217;-80
2023/06/09 13:40:33;;;;;;;3.27;2.80;;;31.80;68.50;;;;;;5120104;28;20239;-81
2023/06/09 13:42:59;;;;;;;3.47;2.73;;;31.00;66.90;;;;;;5121005;28;20179;-80
2023/06/09 13:45:26;;;;;;;2.53;2.33;;;30.50;74.70;;;;;;5121833;28;20296;-80
2023/06/09 13:47:55;;;;;;;2.80;2.60;;;30.60;75.70;;;;;;5120253;28;20201;-80
2023/06/09 13:50:24;;;;;;;2.67;2.47;;;31.00;69.40;;;;;;5118179;28;20185;-80
2023/06/09 13:52:50;;;;;;;4.20;2.77;;;31.20;71.70;;;;;;5118870;28;20177;-79
2023/06/09 13:55:16;;;;;;;3.43;2.33;;;31.40;71.70;;;;;;5116951;28;20653;-80
2023/06/09 13:57:42;;;;;;;3.07;2.60;;;31.60;70.80;;;;;;5116910;28;20244;-80
2023/06/09 14:00:10;;;;;;;3.37;2.73;;;31.50;70.10;;;;;;5116752;28;20223;-79
2023/06/09 14:02:39;;;;;;;2.57;2.37;;;31.20;64.90;;;;;;5116707;28;20178;-80
2023/06/09 14:05:10;;;;;;;2.80;2.40;;;31.10;67.10;;;;;;5118062;28;20179;-80
2023/06/09 14:07:40;;;;;;;3.50;2.40;;;31.10;65.00;;;;;;5116521;28;20192;-80
2023/06/09 14:10:07;;;;;;;4.70;3.10;;;31.10;66.70;;;;;;5116521;28;20237;-79
2023/06/09 14:12:33;;;;;;;4.77;2.77;;;30.70;69.50;;;;;;5116644;28;20206;-80
2023/06/09 14:14:59;;;;;;;4.87;2.80;;;30.50;63.50;;;;;;5117741;28;20187;-80
2023/06/09 14:17:25;;;;;;;2.70;2.50;;;30.40;69.90;;;;;;5117643;28;20179;-80
2023/06/09 14:19:50;;;;;;;2.70;2.50;;;30.70;71.50;;;;;;5116014;28;20252;-80
2023/06/09 14:22:16;;;;;;;4.30;2.87;;;31.00;69.30;;;;;;5116221;28;20190;-79
2023/06/09 14:24:42;;;;;;;3.50;2.50;;;31.10;71.10;;;;;;5116028;28;20179;-80
2023/06/09 14:27:08;;;;;;;3.80;2.40;;;30.80;66.00;;;;;;5115198;28;20198;-79
2023/06/09 14:29:36;;;;;;;5.50;2.40;;;30.50;71.70;;;;;;5116993;28;20700;-80
2023/06/09 14:32:03;;;;;;;2.23;2.03;;;30.70;72.50;;;;;;5115437;28;20191;-79
2023/06/09 14:34:29;;;;;;;3.07;2.50;;;30.80;65.20;;;;;;5115221;28;20648;-79
2023/06/09 14:36:55;;;;;;;3.50;2.40;;;30.90;70.40;;;;;;5115467;28;20175;-79
2023/06/09 14:39:21;;;;;;;2.77;2.47;;;31.00;69.80;;;;;;5115055;28;20209;-80
2023/06/09 14:41:47;;;;;;;4.57;2.47;;;31.10;69.80;;;;;;5117046;28;20215;-79
2023/06/09 14:44:15;;;;;;;3.70;2.63;;;31.20;73.70;;;;;;5117120;28;20656;-81
2023/06/09 14:46:42;;;;;;;3.10;2.80;;;30.60;64.90;;;;;;5118046;28;20171;-79
2023/06/09 14:49:07;;;;;;;2.87;2.40;;;30.20;68.50;;;;;;5117004;28;20188;-80
2023/06/09 14:51:33;;;;;;;4.33;2.30;;;30.10;69.40;;;;;;5117943;28;20176;-79
2023/06/09 14:53:59;;;;;;;2.53;2.33;;;30.00;71.70;;;;;;5117913;28;20266;-79
2023/06/09 14:56:25;;;;;;;2.37;2.17;;;30.40;73.10;;;;;;5116637;28;20586;-79
2023/06/09 14:58:51;;;;;;;2.23;1.93;;;30.70;67.90;;;;;;5115301;28;20653;-79
2023/06/09 15:01:17;;;;;;;3.67;2.40;;;31.00;67.40;;;;;;5116175;28;20691;-79
2023/06/09 15:03:43;;;;;;;4.97;2.53;;;31.00;64.30;;;;;;5114886;28;20178;-78
2023/06/09 15:06:10;;;;;;;3.40;2.10;;;31.00;68.60;;;;;;5115408;28;20178;-79
2023/06/09 15:08:37;;;;;;;3.77;2.43;;;31.10;67.30;;;;;;5116318;28;20191;-78
2023/06/09 15:11:04;;;;;;;8.87;2.30;;;31.00;66.10;;;;;;5116100;28;20178;-79
2023/06/09 15:13:29;;;;;;;2.47;2.27;;;30.40;64.50;;;;;;5117586;28;20195;-81
2023/06/09 15:15:55;;;;;;;3.77;2.27;;;30.20;68.30;;;;;;5116556;28;20262;-80
2023/06/09 15:18:20;;;;;;;2.53;2.33;;;29.80;66.90;;;;;;5116811;28;20291;-80
2023/06/09 15:20:46;;;;;;;2.40;2.20;;;28.60;66.10;;;;;;5116527;28;20243;-80
2023/06/09 15:23:12;;;;;;;2.50;2.30;;;27.60;71.30;;;;;;5117163;28;20175;-80
2023/06/09 15:25:40;;;;;;;7.50;2.50;;;27.30;70.40;;;;;;5116190;28;20179;-80
2023/06/09 15:28:15;;;;;;;4.57;2.73;;;27.90;74.20;;;;;;5115947;28;20591;-80
2023/06/09 15:30:46;;;;;;;3.13;2.40;;;28.70;68.30;;;;;;5116400;28;20181;-80
2023/06/09 15:33:22;;;;;;;2.90;2.60;;;29.30;72.30;;;;;;5117219;28;20637;-80
2023/06/09 15:35:53;;;;;;;4.23;2.10;;;29.70;69.30;;;;;;5119171;28;20170;-80
2023/06/09 15:38:24;;;;;;;2.93;2.50;;;29.90;70.80;;;;;;5117677;28;20209;-80
2023/06/09 15:40:52;;;;;;;5.00;2.50;;;29.70;66.30;;;;;;5117360;28;20819;-79
2023/06/09 15:43:20;;;;;;;2.83;2.63;;;29.50;66.40;;;;;;5115625;28;20170;-80
2023/06/09 15:45:48;;;;;;;3.23;2.50;;;29.30;65.10;;;;;;5116424;28;20170;-80
2023/06/09 15:48:14;;;;;;;2.77;2.57;;;29.10;65.50;;;;;;5116682;28;20193;-80
2023/06/09 15:50:42;;;;;;;2.57;2.37;;;28.20;66.60;;;;;;5115133;28;20276;-79
2023/06/09 15:53:09;;;;;;;2.80;2.57;;;27.00;68.40;;;;;;5116294;28;20176;-80
2023/06/09 15:55:34;;;;;;;3.23;2.87;;;26.30;72.60;;;;;;5116249;28;20258;-80
2023/06/09 15:58:03;;;;;;;4.50;2.80;;;26.20;71.50;;;;;;5116498;28;20580;-80
2023/06/09 16:00:31;;;;;;;3.03;2.73;;;25.80;72.60;;;;;;5116092;28;20278;-80
2023/06/09 16:02:57;;;;;;;4.03;2.60;;;26.00;72.60;;;;;;5117944;28;20229;-81
2023/06/09 16:05:23;;;;;;;2.73;2.30;;;26.40;74.10;;;;;;5118770;28;20184;-80
2023/06/09 16:07:49;;;;;;;6.07;2.70;;;26.80;71.60;;;;;;5120566;28;20748;-80
2023/06/09 16:10:15;;;;;;;3.60;2.80;;;27.10;69.00;;;;;;5118993;28;20188;-80
2023/06/09 16:12:41;;;;;;;3.27;2.73;;;27.20;67.90;;;;;;5119400;28;20180;-80
2023/06/09 16:15:07;;;;;;;3.80;2.50;;;27.10;68.50;;;;;;5118285;28;20262;-79
2023/06/09 16:17:32;;;;;;;4.47;2.93;;;26.80;68.20;;;;;;5117287;28;20185;-79
2023/06/09 16:20:00;;;;;;;3.30;2.43;;;26.50;68.00;;;;;;5117353;28;20207;-80
2023/06/09 16:28:05;;;;;;;3.20;2.87;;;25.20;69.40;;;;;;5134732;27;20294;-80
2023/06/09 16:34:21;;;;;;;3.40;2.97;;;24.80;71.40;;;;;;5134587;27;20271;-80
2023/06/09 16:40:45;;;;;;;3.30;2.93;;;23.70;72.80;;;;;;5135007;27;20282;-80
2023/06/09 16:48:57;;;;;;;3.20;2.90;;;23.40;72.50;;;;;;5134762;27;20283;-79
2023/06/09 16:57:07;;;;;;;5.07;3.37;;;24.50;75.80;;;;;;5134392;27;20278;-79
2023/06/09 17:05:36;;;;;;;4.40;4.00;;;23.00;76.30;;;;;;5142242;27;20279;-83
2023/06/09 17:16:01;;;;;;;5.10;3.47;;;22.80;78.20;;;;;;5128070;27;20355;-84
2023/06/09 17:26:37;;;;;;;4.00;3.50;;;22.60;76.70;;;;;;5143662;27;20277;-82
2023/06/09 17:40:10;;;;;;;4.60;4.10;;;22.30;77.70;;;;;;5142483;27;20264;-82
2023/06/09 17:54:35;;;;;;;4.50;3.20;;;22.00;80.00;;;;;;5124626;27;20319;-84
2023/06/09 18:17:50;;;;;;;8.33;3.37;;;21.50;80.70;;;;;;5127681;27;20287;-83
